Hasabi II — ZCPG3 — position and weather

sailwx.info

Track history (hours):
 
Tides and Currents Weather Stations Pressure Air Temp Water Temp Dewpoint Dewpoint Depression Visibility Wind Speed Wind Dir Waves Ship Positions

Hasabi II

Last reported at 2015-Jul-31 08:33 UTC. Time now 2015-Jul-31 09:19 UTC.
Position N 37°58' E 023°34'.

Length 58 m; draft 3 m.

Type: Ship (hazmat cat C). MMSI: 319022000.

Date/timePositionNaut miles runAvg speedWind from/ knotsBaromVisibWave heightAir tempDewpointWater temp
2015-Jul-31 08:33N 37°58' E 023°34'0 0.0
2015-Jul-31 07:33N 37°58' E 023°34'0 0.5
2015-Jul-31 06:33N 37°57' E 023°35'6 5.9
2015-Jul-31 05:33N 37°52' E 023°38'9 9.1
2015-Jul-31 04:32N 37°44' E 023°43'58 9.3
2015-Jul-30 22:16N 37°21' E 024°51'7 9.4
2015-Jul-30 21:34N 37°21' E 024°60'10 9.7
2015-Jul-30 20:32N 37°21' E 025°12'7 7.5
2015-Jul-30 19:33N 37°25' E 025°19'0 0.0
2015-Jul-30 18:33N 37°25' E 025°19'0 0.0
2015-Jul-30 17:33N 37°25' E 025°19'0 0.0
2015-Jul-30 16:33N 37°25' E 025°19'0 0.0
2015-Jul-30 15:33N 37°25' E 025°19'0 0.0
2015-Jul-30 14:33N 37°25' E 025°19'0 0.0
2015-Jul-30 13:33N 37°25' E 025°19'0 0.0
2015-Jul-30 12:33N 37°25' E 025°19'0 0.0
2015-Jul-30 11:33N 37°25' E 025°19'0 0.0
2015-Jul-30 10:32N 37°25' E 025°19'0 0.0
2015-Jul-30 09:33N 37°25' E 025°19'0 0.0
2015-Jul-30 08:33N 37°25' E 025°19'0 0.0
2015-Jul-30 07:33N 37°25' E 025°19'0 0.0
2015-Jul-30 06:33N 37°25' E 025°19'0 0.0
2015-Jul-30 05:33N 37°25' E 025°19'0 0.0
2015-Jul-30 04:33N 37°25' E 025°19'0 0.0
2015-Jul-30 03:33N 37°25' E 025°19'0 0.0
2015-Jul-30 02:33N 37°25' E 025°19'0 0.0
2015-Jul-30 01:33N 37°25' E 025°19'0 0.0
2015-Jul-30 00:33N 37°25' E 025°19'0 0.0
2015-Jul-29 23:33N 37°25' E 025°19'0 0.0
2015-Jul-29 22:33N 37°25' E 025°19'0 0.0
2015-Jul-29 21:33N 37°25' E 025°19'0 0.0
2015-Jul-29 20:33N 37°25' E 025°19'0 0.0
2015-Jul-29 19:33N 37°25' E 025°19'0 0.0
2015-Jul-29 18:33N 37°25' E 025°19'0 0.0
2015-Jul-29 17:33N 37°25' E 025°19'0 0.0
2015-Jul-29 16:33N 37°25' E 025°19'0 0.0
2015-Jul-29 15:33N 37°25' E 025°19'0 0.0
2015-Jul-29 14:33N 37°25' E 025°19'0 0.0
2015-Jul-29 13:33N 37°25' E 025°19'0 0.0
2015-Jul-29 12:33N 37°25' E 025°19'0 0.0
2015-Jul-29 11:33N 37°25' E 025°19'0 0.0
2015-Jul-29 10:33N 37°25' E 025°19'0 0.0
2015-Jul-29 09:33N 37°25' E 025°19'0 0.0
2015-Jul-29 08:33N 37°25' E 025°19'0 0.0
2015-Jul-29 07:33N 37°25' E 025°19'0 0.0
2015-Jul-29 06:33N 37°25' E 025°19'0 0.0
2015-Jul-29 05:33N 37°25' E 025°19'0 0.0
2015-Jul-29 04:32N 37°25' E 025°19'0 0.0
2015-Jul-29 03:32N 37°25' E 025°19'0 0.0
2015-Jul-29 02:33N 37°25' E 025°19'0 0.0
2015-Jul-29 01:33N 37°25' E 025°19'0 0.0
2015-Jul-29 00:33N 37°25' E 025°19'0 0.0
2015-Jul-28 23:33N 37°25' E 025°19'0 0.0
2015-Jul-28 22:33N 37°25' E 025°19'0 0.0
2015-Jul-28 21:33N 37°25' E 025°19'0 0.0
2015-Jul-28 20:33N 37°25' E 025°19'0 0.0
2015-Jul-28 19:33N 37°25' E 025°19'0 0.0
2015-Jul-28 18:33N 37°25' E 025°19'0 0.0
2015-Jul-28 17:33N 37°25' E 025°19'0 0.0
2015-Jul-28 16:33N 37°25' E 025°19'0 0.0
2015-Jul-28 15:33N 37°25' E 025°19'0 0.0
2015-Jul-28 14:33N 37°25' E 025°19'0 0.0
2015-Jul-28 13:33N 37°25' E 025°19'0 0.0
2015-Jul-28 12:33N 37°25' E 025°19'0 0.0
2015-Jul-28 11:33N 37°25' E 025°19'0 0.0
2015-Jul-28 10:33N 37°25' E 025°19'0 0.0
2015-Jul-28 09:33N 37°25' E 025°19'0 0.0
2015-Jul-28 08:33N 37°25' E 025°19'0 0.0
2015-Jul-28 07:33N 37°25' E 025°19'0 0.0
2015-Jul-28 06:33N 37°25' E 025°19'0 0.0
2015-Jul-28 05:33N 37°25' E 025°19'0 0.0
2015-Jul-28 04:33N 37°25' E 025°19'0 0.0
2015-Jul-28 03:33N 37°25' E 025°19'0 0.0
2015-Jul-28 02:33N 37°25' E 025°19'0 0.0
2015-Jul-28 01:33N 37°25' E 025°19'0 0.0
2015-Jul-28 00:33N 37°25' E 025°19'0 0.0
2015-Jul-27 23:33N 37°25' E 025°19'0 0.0
2015-Jul-27 22:33N 37°25' E 025°19'0 0.0
2015-Jul-27 21:33N 37°25' E 025°19'0 0.0
2015-Jul-27 20:33N 37°25' E 025°19'0 0.0
2015-Jul-27 19:33N 37°25' E 025°19'0 0.0
2015-Jul-27 18:33N 37°25' E 025°19'0 0.0
2015-Jul-27 17:33N 37°25' E 025°19'0 0.0
2015-Jul-27 16:33N 37°25' E 025°19'0 0.0
2015-Jul-27 15:33N 37°25' E 025°19'0 0.0
2015-Jul-27 14:33N 37°25' E 025°19'0 0.0
2015-Jul-27 13:33N 37°25' E 025°19'0 0.0
2015-Jul-27 12:33N 37°25' E 025°19'0 0.0
2015-Jul-27 11:33N 37°25' E 025°19'0 0.0
2015-Jul-27 10:33N 37°25' E 025°19'0 0.0
2015-Jul-27 09:33N 37°25' E 025°19'0 0.0
2015-Jul-27 08:33N 37°25' E 025°19'0 0.0
2015-Jul-27 07:33N 37°25' E 025°19'0 0.0
2015-Jul-27 06:34N 37°25' E 025°19'0 0.0
2015-Jul-27 05:33N 37°25' E 025°19'0 0.0
2015-Jul-27 04:33N 37°25' E 025°19'0 0.0
2015-Jul-27 03:33N 37°25' E 025°19'0 0.0
2015-Jul-27 02:33N 37°25' E 025°19'0 0.0
2015-Jul-27 01:33N 37°25' E 025°19'0 0.0
2015-Jul-27 00:33N 37°25' E 025°19'0 0.0
2015-Jul-26 23:33N 37°25' E 025°19'0 0.0
2015-Jul-26 22:33N 37°25' E 025°19'0 0.0
2015-Jul-26 21:33N 37°25' E 025°19'0 0.0
2015-Jul-26 20:32N 37°25' E 025°19'0 0.0
2015-Jul-26 19:33N 37°25' E 025°19'0 0.0
2015-Jul-26 18:33N 37°25' E 025°19'0 0.0
2015-Jul-26 17:32N 37°25' E 025°19'0 0.0
2015-Jul-26 16:33N 37°25' E 025°19'0 0.0
2015-Jul-26 15:33N 37°25' E 025°19'0 0.0
2015-Jul-26 14:34N 37°25' E 025°19'0 0.0
2015-Jul-26 13:33N 37°25' E 025°19'0 0.0
2015-Jul-26 12:33N 37°25' E 025°19'0 0.0
2015-Jul-26 11:33N 37°25' E 025°19'18 0.8
2015-Jul-25 13:34N 37°08' E 025°14'0 0.0
2015-Jul-25 12:33N 37°08' E 025°14'0 0.0
2015-Jul-25 11:34N 37°08' E 025°14'0 0.0
2015-Jul-25 10:34N 37°08' E 025°14'0 0.0
2015-Jul-25 09:34N 37°08' E 025°14'0 0.0
2015-Jul-25 08:33N 37°08' E 025°14'0 0.0
2015-Jul-25 07:34N 37°08' E 025°14'0 0.0
2015-Jul-25 06:33N 37°08' E 025°14'0 0.0
2015-Jul-25 05:33N 37°08' E 025°14'0 0.0
2015-Jul-25 04:34N 37°08' E 025°14'0 0.0
2015-Jul-25 03:33N 37°08' E 025°14'0 0.0
2015-Jul-25 02:34N 37°08' E 025°14'0 0.0
2015-Jul-25 01:33N 37°08' E 025°14'0 0.0
2015-Jul-25 00:33N 37°08' E 025°14'0 0.0
2015-Jul-24 23:34N 37°08' E 025°14'0 0.0
2015-Jul-24 22:33N 37°08' E 025°14'0 0.0
2015-Jul-24 21:29N 37°08' E 025°14'0 0.0
2015-Jul-24 20:33N 37°08' E 025°14'0 0.0
2015-Jul-24 19:33N 37°08' E 025°14'0 0.0
2015-Jul-24 18:34N 37°08' E 025°14'0 0.0
2015-Jul-24 17:33N 37°08' E 025°14'4 3.9
2015-Jul-24 16:33N 37°09' E 025°18'9 9.2
2015-Jul-24 15:34N 36°60' E 025°19'31 3.0
2015-Jul-24 05:11N 36°29' E 025°21'5 7.3
2015-Jul-24 04:33N 36°25' E 025°25'1 0.8
2015-Jul-24 03:33N 36°25' E 025°26'0 0.0
2015-Jul-24 02:32N 36°25' E 025°26'0 0.0
2015-Jul-24 01:32N 36°25' E 025°26'0 0.0
2015-Jul-24 00:32N 36°25' E 025°26'0 0.0
2015-Jul-23 23:32N 36°25' E 025°26'0 0.0
2015-Jul-23 22:33N 36°25' E 025°26'0 0.0
2015-Jul-23 21:33N 36°25' E 025°26'0 0.0
2015-Jul-23 20:32N 36°25' E 025°26'0 0.0
2015-Jul-23 19:32N 36°25' E 025°26'0 0.0
2015-Jul-23 18:32N 36°25' E 025°26'0 0.0
2015-Jul-23 17:32N 36°25' E 025°26'0 0.0
2015-Jul-23 16:33N 36°25' E 025°26'0 0.0
2015-Jul-23 15:33N 36°25' E 025°26'0 0.0
2015-Jul-23 14:32N 36°25' E 025°25'0 0.0
2015-Jul-23 13:32N 36°25' E 025°26'0 0.0
2015-Jul-23 12:32N 36°25' E 025°26'0 0.0
2015-Jul-23 11:32N 36°25' E 025°26'0 0.0
2015-Jul-23 10:33N 36°25' E 025°26'0 0.0
2015-Jul-23 09:33N 36°25' E 025°25'0 0.0
2015-Jul-23 08:33N 36°25' E 025°26'0 0.0
2015-Jul-23 07:33N 36°25' E 025°26'0 0.0
2015-Jul-23 06:32N 36°25' E 025°26'0 0.0
2015-Jul-23 05:32N 36°25' E 025°26'0 0.0
2015-Jul-23 04:32N 36°25' E 025°26'0 0.0
2015-Jul-23 03:31N 36°25' E 025°26'0 0.0
2015-Jul-23 02:31N 36°25' E 025°26'0 0.0
2015-Jul-23 01:32N 36°25' E 025°26'0 0.0
2015-Jul-23 00:32N 36°25' E 025°26'0 0.0
2015-Jul-22 23:32N 36°25' E 025°26'0 0.0
2015-Jul-22 22:33N 36°25' E 025°26'0 0.0
2015-Jul-22 21:32N 36°25' E 025°26'0 0.0
2015-Jul-22 20:32N 36°25' E 025°26'0 0.0
2015-Jul-22 19:33N 36°25' E 025°26'0 0.0
2015-Jul-22 18:33N 36°25' E 025°25'0 0.0
2015-Jul-22 17:33N 36°25' E 025°25'0 0.0
2015-Jul-22 16:32N 36°25' E 025°25'0 0.0
2015-Jul-22 15:33N 36°25' E 025°26'0 0.0
2015-Jul-22 14:32N 36°25' E 025°26'0 0.0
2015-Jul-22 13:33N 36°25' E 025°26'0 0.0
2015-Jul-22 12:33N 36°25' E 025°26'0 0.0
2015-Jul-22 11:32N 36°25' E 025°26'0 0.0
2015-Jul-22 10:32N 36°25' E 025°26'0 0.0
2015-Jul-22 09:33N 36°25' E 025°26'0 0.0
2015-Jul-22 08:33N 36°25' E 025°26'0 0.1
2015-Jul-22 07:29N 36°25' E 025°25'0 0.0
2015-Jul-22 06:33N 36°25' E 025°25'0 0.0
2015-Jul-22 05:32N 36°25' E 025°25'0 0.0
2015-Jul-22 04:32N 36°25' E 025°26'0 0.0
2015-Jul-22 03:33N 36°25' E 025°25'0 0.0
2015-Jul-22 02:32N 36°25' E 025°25'0 0.1
2015-Jul-22 01:32N 36°25' E 025°26'0 0.0
2015-Jul-22 00:32N 36°25' E 025°26'0 0.0
2015-Jul-21 23:32N 36°25' E 025°26'0 0.0
2015-Jul-21 22:32N 36°25' E 025°26'0 0.0
2015-Jul-21 21:32N 36°25' E 025°26'0 0.0
2015-Jul-21 20:33N 36°25' E 025°26'0 0.0
2015-Jul-21 19:32N 36°25' E 025°26'0 0.1
2015-Jul-21 18:33N 36°25' E 025°25'0 0.2
2015-Jul-21 17:33N 36°25' E 025°26'0 0.0
2015-Jul-21 16:33N 36°25' E 025°26'0 0.0
2015-Jul-21 15:32N 36°25' E 025°26'0 0.0
2015-Jul-21 14:32N 36°25' E 025°26'0 0.0
2015-Jul-21 13:33N 36°25' E 025°26'0 0.0
2015-Jul-21 12:33N 36°25' E 025°26'0 0.0
2015-Jul-21 11:33N 36°25' E 025°26'0 0.0
2015-Jul-21 10:33N 36°25' E 025°26'0 0.0
2015-Jul-21 09:33N 36°25' E 025°26'0 0.0
2015-Jul-21 08:33N 36°25' E 025°26'  
Track history (hours):
 
Tides and Currents Weather Stations Pressure Air Temp Water Temp Dewpoint Dewpoint Depression Visibility Wind Speed Wind Dir Waves Ship Positions

Hasabi II

Last reported at 2015-Jul-31 08:33 UTC. Time now 2015-Jul-31 09:19 UTC.
Position N 37°58' E 023°34'.

Length 58 m; draft 3 m.

Type: Ship (hazmat cat C). MMSI: 319022000.

Date/timePositionNaut miles runAvg speedWind from/ knotsBaromVisibWave heightAir tempDewpointWater temp
2015-Jul-31 08:33N 37°58' E 023°34'0 0.0
2015-Jul-31 07:33N 37°58' E 023°34'0 0.5
2015-Jul-31 06:33N 37°57' E 023°35'6 5.9
2015-Jul-31 05:33N 37°52' E 023°38'9 9.1
2015-Jul-31 04:32N 37°44' E 023°43'58 9.3
2015-Jul-30 22:16N 37°21' E 024°51'7 9.4
2015-Jul-30 21:34N 37°21' E 024°60'10 9.7
2015-Jul-30 20:32N 37°21' E 025°12'7 7.5
2015-Jul-30 19:33N 37°25' E 025°19'0 0.0
2015-Jul-30 18:33N 37°25' E 025°19'0 0.0
2015-Jul-30 17:33N 37°25' E 025°19'0 0.0
2015-Jul-30 16:33N 37°25' E 025°19'0 0.0
2015-Jul-30 15:33N 37°25' E 025°19'0 0.0
2015-Jul-30 14:33N 37°25' E 025°19'0 0.0
2015-Jul-30 13:33N 37°25' E 025°19'0 0.0
2015-Jul-30 12:33N 37°25' E 025°19'0 0.0
2015-Jul-30 11:33N 37°25' E 025°19'0 0.0
2015-Jul-30 10:32N 37°25' E 025°19'0 0.0
2015-Jul-30 09:33N 37°25' E 025°19'0 0.0
2015-Jul-30 08:33N 37°25' E 025°19'0 0.0
2015-Jul-30 07:33N 37°25' E 025°19'0 0.0
2015-Jul-30 06:33N 37°25' E 025°19'0 0.0
2015-Jul-30 05:33N 37°25' E 025°19'0 0.0
2015-Jul-30 04:33N 37°25' E 025°19'0 0.0
2015-Jul-30 03:33N 37°25' E 025°19'0 0.0
2015-Jul-30 02:33N 37°25' E 025°19'0 0.0
2015-Jul-30 01:33N 37°25' E 025°19'0 0.0
2015-Jul-30 00:33N 37°25' E 025°19'0 0.0
2015-Jul-29 23:33N 37°25' E 025°19'0 0.0
2015-Jul-29 22:33N 37°25' E 025°19'0 0.0
2015-Jul-29 21:33N 37°25' E 025°19'0 0.0
2015-Jul-29 20:33N 37°25' E 025°19'0 0.0
2015-Jul-29 19:33N 37°25' E 025°19'0 0.0
2015-Jul-29 18:33N 37°25' E 025°19'0 0.0
2015-Jul-29 17:33N 37°25' E 025°19'0 0.0
2015-Jul-29 16:33N 37°25' E 025°19'0 0.0
2015-Jul-29 15:33N 37°25' E 025°19'0 0.0
2015-Jul-29 14:33N 37°25' E 025°19'0 0.0
2015-Jul-29 13:33N 37°25' E 025°19'0 0.0
2015-Jul-29 12:33N 37°25' E 025°19'0 0.0
2015-Jul-29 11:33N 37°25' E 025°19'0 0.0
2015-Jul-29 10:33N 37°25' E 025°19'0 0.0
2015-Jul-29 09:33N 37°25' E 025°19'0 0.0
2015-Jul-29 08:33N 37°25' E 025°19'0 0.0
2015-Jul-29 07:33N 37°25' E 025°19'0 0.0
2015-Jul-29 06:33N 37°25' E 025°19'0 0.0
2015-Jul-29 05:33N 37°25' E 025°19'0 0.0
2015-Jul-29 04:32N 37°25' E 025°19'0 0.0
2015-Jul-29 03:32N 37°25' E 025°19'0 0.0
2015-Jul-29 02:33N 37°25' E 025°19'0 0.0
2015-Jul-29 01:33N 37°25' E 025°19'0 0.0
2015-Jul-29 00:33N 37°25' E 025°19'0 0.0
2015-Jul-28 23:33N 37°25' E 025°19'0 0.0
2015-Jul-28 22:33N 37°25' E 025°19'0 0.0
2015-Jul-28 21:33N 37°25' E 025°19'0 0.0
2015-Jul-28 20:33N 37°25' E 025°19'0 0.0
2015-Jul-28 19:33N 37°25' E 025°19'0 0.0
2015-Jul-28 18:33N 37°25' E 025°19'0 0.0
2015-Jul-28 17:33N 37°25' E 025°19'0 0.0
2015-Jul-28 16:33N 37°25' E 025°19'0 0.0
2015-Jul-28 15:33N 37°25' E 025°19'0 0.0
2015-Jul-28 14:33N 37°25' E 025°19'0 0.0
2015-Jul-28 13:33N 37°25' E 025°19'0 0.0
2015-Jul-28 12:33N 37°25' E 025°19'0 0.0
2015-Jul-28 11:33N 37°25' E 025°19'0 0.0
2015-Jul-28 10:33N 37°25' E 025°19'0 0.0
2015-Jul-28 09:33N 37°25' E 025°19'0 0.0
2015-Jul-28 08:33N 37°25' E 025°19'0 0.0
2015-Jul-28 07:33N 37°25' E 025°19'0 0.0
2015-Jul-28 06:33N 37°25' E 025°19'0 0.0
2015-Jul-28 05:33N 37°25' E 025°19'0 0.0
2015-Jul-28 04:33N 37°25' E 025°19'0 0.0
2015-Jul-28 03:33N 37°25' E 025°19'0 0.0
2015-Jul-28 02:33N 37°25' E 025°19'0 0.0
2015-Jul-28 01:33N 37°25' E 025°19'0 0.0
2015-Jul-28 00:33N 37°25' E 025°19'0 0.0
2015-Jul-27 23:33N 37°25' E 025°19'0 0.0
2015-Jul-27 22:33N 37°25' E 025°19'0 0.0
2015-Jul-27 21:33N 37°25' E 025°19'0 0.0
2015-Jul-27 20:33N 37°25' E 025°19'0 0.0
2015-Jul-27 19:33N 37°25' E 025°19'0 0.0
2015-Jul-27 18:33N 37°25' E 025°19'0 0.0
2015-Jul-27 17:33N 37°25' E 025°19'0 0.0
2015-Jul-27 16:33N 37°25' E 025°19'0 0.0
2015-Jul-27 15:33N 37°25' E 025°19'0 0.0
2015-Jul-27 14:33N 37°25' E 025°19'0 0.0
2015-Jul-27 13:33N 37°25' E 025°19'0 0.0
2015-Jul-27 12:33N 37°25' E 025°19'0 0.0
2015-Jul-27 11:33N 37°25' E 025°19'0 0.0
2015-Jul-27 10:33N 37°25' E 025°19'0 0.0
2015-Jul-27 09:33N 37°25' E 025°19'0 0.0
2015-Jul-27 08:33N 37°25' E 025°19'0 0.0
2015-Jul-27 07:33N 37°25' E 025°19'0 0.0
2015-Jul-27 06:34N 37°25' E 025°19'0 0.0
2015-Jul-27 05:33N 37°25' E 025°19'0 0.0
2015-Jul-27 04:33N 37°25' E 025°19'0 0.0
2015-Jul-27 03:33N 37°25' E 025°19'0 0.0
2015-Jul-27 02:33N 37°25' E 025°19'0 0.0
2015-Jul-27 01:33N 37°25' E 025°19'0 0.0
2015-Jul-27 00:33N 37°25' E 025°19'0 0.0
2015-Jul-26 23:33N 37°25' E 025°19'0 0.0
2015-Jul-26 22:33N 37°25' E 025°19'0 0.0
2015-Jul-26 21:33N 37°25' E 025°19'0 0.0
2015-Jul-26 20:32N 37°25' E 025°19'0 0.0
2015-Jul-26 19:33N 37°25' E 025°19'0 0.0
2015-Jul-26 18:33N 37°25' E 025°19'0 0.0
2015-Jul-26 17:32N 37°25' E 025°19'0 0.0
2015-Jul-26 16:33N 37°25' E 025°19'0 0.0
2015-Jul-26 15:33N 37°25' E 025°19'0 0.0
2015-Jul-26 14:34N 37°25' E 025°19'0 0.0
2015-Jul-26 13:33N 37°25' E 025°19'0 0.0
2015-Jul-26 12:33N 37°25' E 025°19'0 0.0
2015-Jul-26 11:33N 37°25' E 025°19'18 0.8
2015-Jul-25 13:34N 37°08' E 025°14'0 0.0
2015-Jul-25 12:33N 37°08' E 025°14'0 0.0
2015-Jul-25 11:34N 37°08' E 025°14'0 0.0
2015-Jul-25 10:34N 37°08' E 025°14'0 0.0
2015-Jul-25 09:34N 37°08' E 025°14'0 0.0
2015-Jul-25 08:33N 37°08' E 025°14'0 0.0
2015-Jul-25 07:34N 37°08' E 025°14'0 0.0
2015-Jul-25 06:33N 37°08' E 025°14'0 0.0
2015-Jul-25 05:33N 37°08' E 025°14'0 0.0
2015-Jul-25 04:34N 37°08' E 025°14'0 0.0
2015-Jul-25 03:33N 37°08' E 025°14'0 0.0
2015-Jul-25 02:34N 37°08' E 025°14'0 0.0
2015-Jul-25 01:33N 37°08' E 025°14'0 0.0
2015-Jul-25 00:33N 37°08' E 025°14'0 0.0
2015-Jul-24 23:34N 37°08' E 025°14'0 0.0
2015-Jul-24 22:33N 37°08' E 025°14'0 0.0
2015-Jul-24 21:29N 37°08' E 025°14'0 0.0
2015-Jul-24 20:33N 37°08' E 025°14'0 0.0
2015-Jul-24 19:33N 37°08' E 025°14'0 0.0
2015-Jul-24 18:34N 37°08' E 025°14'0 0.0
2015-Jul-24 17:33N 37°08' E 025°14'4 3.9
2015-Jul-24 16:33N 37°09' E 025°18'9 9.2
2015-Jul-24 15:34N 36°60' E 025°19'31 3.0
2015-Jul-24 05:11N 36°29' E 025°21'5 7.3
2015-Jul-24 04:33N 36°25' E 025°25'1 0.8
2015-Jul-24 03:33N 36°25' E 025°26'0 0.0
2015-Jul-24 02:32N 36°25' E 025°26'0 0.0
2015-Jul-24 01:32N 36°25' E 025°26'0 0.0
2015-Jul-24 00:32N 36°25' E 025°26'0 0.0
2015-Jul-23 23:32N 36°25' E 025°26'0 0.0
2015-Jul-23 22:33N 36°25' E 025°26'0 0.0
2015-Jul-23 21:33N 36°25' E 025°26'0 0.0
2015-Jul-23 20:32N 36°25' E 025°26'0 0.0
2015-Jul-23 19:32N 36°25' E 025°26'0 0.0
2015-Jul-23 18:32N 36°25' E 025°26'0 0.0
2015-Jul-23 17:32N 36°25' E 025°26'0 0.0
2015-Jul-23 16:33N 36°25' E 025°26'0 0.0
2015-Jul-23 15:33N 36°25' E 025°26'0 0.0
2015-Jul-23 14:32N 36°25' E 025°25'0 0.0
2015-Jul-23 13:32N 36°25' E 025°26'0 0.0
2015-Jul-23 12:32N 36°25' E 025°26'0 0.0
2015-Jul-23 11:32N 36°25' E 025°26'0 0.0
2015-Jul-23 10:33N 36°25' E 025°26'0 0.0
2015-Jul-23 09:33N 36°25' E 025°25'0 0.0
2015-Jul-23 08:33N 36°25' E 025°26'0 0.0
2015-Jul-23 07:33N 36°25' E 025°26'0 0.0
2015-Jul-23 06:32N 36°25' E 025°26'0 0.0
2015-Jul-23 05:32N 36°25' E 025°26'0 0.0
2015-Jul-23 04:32N 36°25' E 025°26'0 0.0
2015-Jul-23 03:31N 36°25' E 025°26'0 0.0
2015-Jul-23 02:31N 36°25' E 025°26'0 0.0
2015-Jul-23 01:32N 36°25' E 025°26'0 0.0
2015-Jul-23 00:32N 36°25' E 025°26'0 0.0
2015-Jul-22 23:32N 36°25' E 025°26'0 0.0
2015-Jul-22 22:33N 36°25' E 025°26'0 0.0
2015-Jul-22 21:32N 36°25' E 025°26'0 0.0
2015-Jul-22 20:32N 36°25' E 025°26'0 0.0
2015-Jul-22 19:33N 36°25' E 025°26'0 0.0
2015-Jul-22 18:33N 36°25' E 025°25'0 0.0
2015-Jul-22 17:33N 36°25' E 025°25'0 0.0
2015-Jul-22 16:32N 36°25' E 025°25'0 0.0
2015-Jul-22 15:33N 36°25' E 025°26'0 0.0
2015-Jul-22 14:32N 36°25' E 025°26'0 0.0
2015-Jul-22 13:33N 36°25' E 025°26'0 0.0
2015-Jul-22 12:33N 36°25' E 025°26'0 0.0
2015-Jul-22 11:32N 36°25' E 025°26'0 0.0
2015-Jul-22 10:32N 36°25' E 025°26'0 0.0
2015-Jul-22 09:33N 36°25' E 025°26'0 0.0
2015-Jul-22 08:33N 36°25' E 025°26'0 0.1
2015-Jul-22 07:29N 36°25' E 025°25'0 0.0
2015-Jul-22 06:33N 36°25' E 025°25'0 0.0
2015-Jul-22 05:32N 36°25' E 025°25'0 0.0
2015-Jul-22 04:32N 36°25' E 025°26'0 0.0
2015-Jul-22 03:33N 36°25' E 025°25'0 0.0
2015-Jul-22 02:32N 36°25' E 025°25'0 0.1
2015-Jul-22 01:32N 36°25' E 025°26'0 0.0
2015-Jul-22 00:32N 36°25' E 025°26'0 0.0
2015-Jul-21 23:32N 36°25' E 025°26'0 0.0
2015-Jul-21 22:32N 36°25' E 025°26'0 0.0
2015-Jul-21 21:32N 36°25' E 025°26'0 0.0
2015-Jul-21 20:33N 36°25' E 025°26'0 0.0
2015-Jul-21 19:32N 36°25' E 025°26'0 0.1
2015-Jul-21 18:33N 36°25' E 025°25'0 0.2
2015-Jul-21 17:33N 36°25' E 025°26'0 0.0
2015-Jul-21 16:33N 36°25' E 025°26'0 0.0
2015-Jul-21 15:32N 36°25' E 025°26'0 0.0
2015-Jul-21 14:32N 36°25' E 025°26'0 0.0
2015-Jul-21 13:33N 36°25' E 025°26'0 0.0
2015-Jul-21 12:33N 36°25' E 025°26'0 0.0
2015-Jul-21 11:33N 36°25' E 025°26'0 0.0
2015-Jul-21 10:33N 36°25' E 025°26'0 0.0
2015-Jul-21 09:33N 36°25' E 025°26'0 0.0
2015-Jul-21 08:33N 36°25' E 025°26'  

Dump ship's entire track history